createdAt,value
2023-06-15T00:00:55.651Z,0.51
2023-06-15T00:01:55.708Z,0.51
2023-06-15T00:02:55.907Z,0.51
2023-06-15T00:03:56.081Z,0.51
2023-06-15T00:04:55.866Z,0.50
2023-06-15T00:05:55.935Z,0.51
2023-06-15T00:06:56.011Z,0.51
2023-06-15T00:07:56.038Z,0.51
2023-06-15T00:08:56.109Z,0.51
2023-06-15T00:09:56.195Z,0.52
2023-06-15T00:10:56.229Z,0.51
2023-06-15T00:11:56.272Z,0.50
2023-06-15T00:12:56.332Z,0.51
2023-06-15T00:13:56.405Z,0.51
2023-06-15T00:14:56.474Z,0.51
2023-06-15T00:15:56.526Z,0.50
2023-06-15T00:16:56.566Z,0.51
2023-06-15T00:17:56.697Z,0.52
2023-06-15T00:18:56.687Z,0.52
2023-06-15T00:19:56.765Z,0.51
2023-06-15T00:20:56.782Z,0.52
2023-06-15T00:21:56.853Z,0.52
2023-06-15T00:22:56.935Z,0.52
2023-06-15T00:23:56.993Z,0.52
2023-06-15T00:24:57.026Z,0.52
2023-06-15T00:25:57.130Z,0.52
2023-06-15T00:26:57.133Z,0.52
2023-06-15T00:27:57.175Z,0.52
2023-06-15T00:28:57.234Z,0.52
2023-06-15T00:29:57.314Z,0.51
2023-06-15T00:30:57.350Z,0.51
2023-06-15T00:31:57.499Z,0.52
2023-06-15T00:32:57.563Z,0.53
2023-06-15T00:33:57.551Z,0.52
2023-06-15T00:34:57.587Z,0.51
2023-06-15T00:35:57.644Z,0.51
2023-06-15T00:36:57.718Z,0.52
2023-06-15T00:37:57.788Z,0.52
2023-06-15T00:38:57.833Z,0.52
2023-06-15T00:39:57.879Z,0.51
2023-06-15T00:40:57.930Z,0.52
2023-06-15T00:41:57.998Z,0.52
2023-06-15T00:42:58.052Z,0.51
2023-06-15T00:43:58.110Z,0.51
2023-06-15T00:44:58.172Z,0.52
2023-06-15T00:45:58.233Z,0.51
2023-06-15T00:46:58.338Z,0.51
2023-06-15T00:47:58.366Z,0.52
2023-06-15T00:48:58.425Z,0.51
2023-06-15T00:49:58.458Z,0.52
2023-06-15T00:50:58.527Z,0.51
2023-06-15T00:51:58.605Z,0.52
2023-06-15T00:52:58.665Z,0.51
2023-06-15T00:53:58.703Z,0.51
2023-06-15T00:54:58.772Z,0.51
2023-06-15T00:55:58.811Z,0.51
2023-06-15T00:56:58.884Z,0.51
2023-06-15T00:57:58.931Z,0.51
2023-06-15T00:58:59.007Z,0.51
2023-06-15T00:59:59.054Z,0.50
2023-06-15T01:00:59.114Z,0.51
2023-06-15T01:01:59.169Z,0.52
2023-06-15T01:02:59.277Z,0.51
2023-06-15T01:03:59.310Z,0.51
2023-06-15T01:04:59.352Z,0.51
2023-06-15T01:05:59.400Z,0.52
2023-06-15T01:06:59.500Z,0.51
2023-06-15T01:07:59.521Z,0.51
2023-06-15T01:08:59.602Z,0.52
2023-06-15T01:09:59.661Z,0.51
2023-06-15T01:10:59.713Z,0.51
2023-06-15T01:11:59.800Z,0.52
2023-06-15T01:12:59.829Z,0.52
2023-06-15T01:13:59.920Z,0.52
2023-06-15T01:14:59.948Z,0.51
2023-06-15T01:16:00.022Z,0.52
2023-06-15T01:17:00.093Z,0.52
2023-06-15T01:18:00.229Z,0.51
2023-06-15T01:19:00.194Z,0.52
2023-06-15T01:20:00.243Z,0.51
2023-06-15T01:21:00.300Z,0.52
2023-06-15T01:22:00.389Z,0.51
2023-06-15T01:23:00.427Z,0.51
2023-06-15T01:24:00.550Z,0.51
2023-06-15T01:25:00.542Z,0.52
2023-06-15T01:26:00.627Z,0.51
2023-06-15T01:27:00.671Z,0.51
2023-06-15T01:28:00.742Z,0.51
2023-06-15T01:29:00.784Z,0.51
2023-06-15T01:30:00.882Z,0.52
2023-06-15T01:31:00.949Z,0.52
2023-06-15T01:32:00.974Z,0.52
2023-06-15T01:33:01.051Z,0.52
2023-06-15T01:34:01.133Z,0.52
2023-06-15T01:35:01.195Z,0.51
2023-06-15T01:36:01.206Z,0.52
2023-06-15T01:37:01.275Z,0.52
2023-06-15T01:38:01.328Z,0.53
2023-06-15T01:39:01.389Z,0.52
2023-06-15T01:40:01.468Z,0.51
2023-06-15T01:41:01.524Z,0.51
2023-06-15T01:42:01.571Z,0.51
2023-06-15T01:43:01.626Z,0.51
2023-06-15T01:44:01.683Z,0.52
2023-06-15T01:45:01.733Z,0.52
2023-06-15T01:46:01.801Z,0.52
2023-06-15T01:47:02.044Z,0.51
2023-06-15T01:48:01.966Z,0.51
2023-06-15T01:49:01.969Z,0.51
2023-06-15T01:50:02.037Z,0.51
2023-06-15T01:51:02.095Z,0.52
2023-06-15T01:52:02.169Z,0.52
2023-06-15T01:53:02.234Z,0.52
2023-06-15T01:54:02.309Z,0.52
2023-06-15T01:55:02.340Z,0.51
2023-06-15T01:56:02.425Z,0.52
2023-06-15T01:57:02.482Z,0.52
2023-06-15T01:58:02.563Z,0.51
2023-06-15T01:59:02.587Z,0.52
2023-06-15T02:00:02.649Z,0.53
2023-06-15T02:01:02.722Z,0.52
2023-06-15T02:02:02.831Z,0.52
2023-06-15T02:03:03.034Z,0.51
2023-06-15T02:04:02.892Z,0.52
2023-06-15T02:05:02.959Z,0.51
2023-06-15T02:06:03.026Z,0.52
2023-06-15T02:07:03.073Z,0.52
2023-06-15T02:08:03.153Z,0.51
2023-06-15T02:09:03.489Z,0.51
2023-06-15T02:10:03.260Z,0.51
2023-06-15T02:11:03.309Z,0.51
2023-06-15T02:12:03.379Z,0.52
2023-06-15T02:13:03.446Z,0.51
2023-06-15T02:14:03.511Z,0.51
2023-06-15T02:15:03.557Z,0.51
2023-06-15T02:16:03.626Z,0.52
2023-06-15T02:17:03.706Z,0.52
2023-06-15T02:18:03.753Z,0.51
2023-06-15T02:19:03.809Z,0.52
2023-06-15T02:20:03.906Z,0.51
2023-06-15T02:21:03.925Z,0.50
2023-06-15T02:22:03.990Z,0.51
2023-06-15T02:23:04.070Z,0.51
2023-06-15T02:24:04.126Z,0.50
2023-06-15T02:25:04.181Z,0.51
2023-06-15T02:26:04.252Z,0.51
2023-06-15T02:27:04.300Z,0.52
2023-06-15T02:28:04.364Z,0.52
2023-06-15T02:29:04.447Z,0.52
2023-06-15T02:30:04.511Z,0.51
2023-06-15T02:31:04.549Z,0.51
2023-06-15T02:32:04.635Z,0.52
2023-06-15T02:33:04.762Z,0.51
2023-06-15T02:34:04.785Z,0.51
2023-06-15T02:35:04.814Z,0.51
2023-06-15T02:36:04.852Z,0.52
2023-06-15T02:37:04.919Z,0.51
2023-06-15T02:38:05.002Z,0.52
2023-06-15T02:39:05.020Z,0.52
2023-06-15T02:40:05.099Z,0.52
2023-06-15T02:41:05.139Z,0.51
2023-06-15T02:42:05.203Z,0.52
2023-06-15T02:43:05.295Z,0.51
2023-06-15T02:44:05.337Z,0.52
2023-06-15T02:45:05.487Z,0.51
2023-06-15T02:46:05.460Z,0.51
2023-06-15T02:47:05.512Z,0.51
2023-06-15T02:48:05.621Z,0.51
2023-06-15T02:49:05.661Z,0.51
2023-06-15T02:50:05.724Z,0.51
2023-06-15T02:51:05.759Z,0.52
2023-06-15T02:52:05.826Z,0.51
2023-06-15T02:53:05.916Z,0.51
2023-06-15T02:54:05.963Z,0.51
2023-06-15T02:55:06.052Z,0.52
2023-06-15T02:56:08.071Z,0.51
2023-06-15T02:57:06.145Z,0.51
2023-06-15T02:58:06.183Z,0.51
2023-06-15T02:59:06.249Z,0.51
2023-06-15T03:00:06.319Z,0.52
2023-06-15T03:01:06.378Z,0.52
2023-06-15T03:02:06.482Z,0.52
2023-06-15T03:03:06.569Z,0.51
2023-06-15T03:04:06.578Z,0.50
2023-06-15T03:05:06.641Z,0.51
2023-06-15T03:06:06.722Z,0.51
2023-06-15T03:07:06.772Z,0.52
2023-06-15T03:08:06.821Z,0.51
2023-06-15T03:09:06.893Z,0.51
2023-06-15T03:10:06.975Z,0.52
2023-06-15T03:11:07.034Z,0.51
2023-06-15T03:12:07.078Z,0.50
2023-06-15T03:13:07.148Z,0.51
2023-06-15T03:14:07.213Z,0.51
2023-06-15T03:15:07.263Z,0.51
2023-06-15T03:16:07.339Z,0.50
2023-06-15T03:17:07.406Z,0.51
2023-06-15T03:18:07.487Z,0.50
2023-06-15T03:19:07.571Z,0.52
2023-06-15T03:20:07.590Z,0.51
2023-06-15T03:21:07.687Z,0.51
2023-06-15T03:22:07.715Z,0.51
2023-06-15T03:23:09.085Z,0.52
2023-06-15T03:24:07.864Z,0.52
2023-06-15T03:25:07.904Z,0.51
2023-06-15T03:26:07.975Z,0.51
2023-06-15T03:27:08.021Z,0.51
2023-06-15T03:28:08.070Z,0.51
2023-06-15T03:29:08.147Z,0.51
2023-06-15T03:30:08.192Z,0.52
2023-06-15T03:31:08.258Z,0.51
2023-06-15T03:32:08.340Z,0.51
2023-06-15T03:33:08.449Z,0.52
2023-06-15T03:34:08.479Z,0.51
2023-06-15T03:35:08.521Z,0.51
2023-06-15T03:36:08.570Z,0.51
2023-06-15T03:37:08.654Z,0.52
2023-06-15T03:38:08.702Z,0.52
2023-06-15T03:39:08.762Z,0.52
2023-06-15T03:40:08.828Z,0.51
2023-06-15T03:41:08.883Z,0.52
2023-06-15T03:42:08.968Z,0.51
2023-06-15T03:43:09.025Z,0.52
2023-06-15T03:44:09.099Z,0.51
2023-06-15T03:45:09.154Z,0.52
2023-06-15T03:46:09.203Z,0.52
2023-06-15T03:47:09.276Z,0.51
2023-06-15T03:48:09.402Z,0.51
2023-06-15T03:49:09.404Z,0.52
2023-06-15T03:50:09.490Z,0.52
2023-06-15T03:51:09.525Z,0.52
2023-06-15T03:52:09.621Z,0.51
2023-06-15T03:53:10.551Z,0.51
2023-06-15T03:54:09.727Z,0.52
2023-06-15T03:55:09.792Z,0.51
2023-06-15T03:56:09.827Z,0.52
2023-06-15T03:57:09.893Z,0.51
2023-06-15T03:58:09.957Z,0.52
2023-06-15T03:59:10.005Z,0.52
2023-06-15T04:00:10.078Z,0.51
2023-06-15T04:01:10.127Z,0.51
2023-06-15T04:02:10.206Z,0.51
2023-06-15T04:03:10.477Z,0.51
2023-06-15T04:04:10.429Z,0.52
2023-06-15T04:05:10.461Z,0.50
2023-06-15T04:06:10.457Z,0.51
2023-06-15T04:07:10.506Z,0.51
2023-06-15T04:08:10.603Z,0.51
2023-06-15T04:09:10.627Z,0.51
2023-06-15T04:10:10.705Z,0.52
2023-06-15T04:11:10.750Z,0.51
2023-06-15T04:12:10.812Z,0.51
2023-06-15T04:13:10.857Z,0.52
2023-06-15T04:14:10.934Z,0.51
2023-06-15T04:15:10.993Z,0.51
2023-06-15T04:16:11.056Z,0.51
2023-06-15T04:17:11.091Z,0.51
2023-06-15T04:18:11.171Z,0.51
2023-06-15T04:19:11.204Z,0.51
2023-06-15T04:20:11.277Z,0.51
2023-06-15T04:21:11.343Z,0.51
2023-06-15T04:22:11.433Z,0.51
2023-06-15T04:23:11.495Z,0.50
2023-06-15T04:24:11.576Z,0.52
2023-06-15T04:25:11.547Z,0.51
2023-06-15T04:26:11.619Z,0.50
2023-06-15T04:27:11.701Z,0.51
2023-06-15T04:28:11.769Z,0.50
2023-06-15T04:29:14.107Z,0.51
2023-06-15T04:30:11.794Z,0.53
2023-06-15T04:31:11.844Z,0.51
2023-06-15T04:32:11.793Z,0.52
2023-06-15T04:33:11.847Z,0.51
2023-06-15T04:34:11.833Z,0.51
2023-06-15T04:35:11.786Z,0.51
2023-06-15T04:36:11.773Z,0.50
2023-06-15T04:37:11.782Z,0.52
2023-06-15T04:38:11.746Z,0.51
2023-06-15T04:39:11.745Z,0.51
2023-06-15T04:40:11.751Z,0.52
2023-06-15T04:41:11.738Z,0.52
2023-06-15T04:42:11.738Z,0.51
2023-06-15T04:43:11.724Z,0.50
2023-06-15T04:44:11.750Z,0.51
2023-06-15T04:45:11.717Z,0.50
2023-06-15T04:46:11.698Z,0.51
2023-06-15T04:47:11.698Z,0.51
2023-06-15T04:48:11.688Z,0.51
2023-06-15T04:49:12.089Z,0.51
2023-06-15T04:50:11.680Z,0.51
2023-06-15T04:51:11.707Z,0.50
2023-06-15T04:52:11.706Z,0.51
2023-06-15T04:53:11.660Z,0.51
2023-06-15T04:54:11.666Z,0.52
2023-06-15T04:55:11.644Z,0.51
2023-06-15T04:56:11.656Z,0.51
2023-06-15T04:57:11.643Z,0.51
2023-06-15T04:58:11.635Z,0.51
2023-06-15T04:59:11.636Z,0.51
2023-06-15T05:00:11.661Z,0.51
2023-06-15T05:01:11.627Z,0.51
2023-06-15T05:02:11.694Z,0.51
2023-06-15T05:03:11.862Z,0.51
2023-06-15T05:04:11.757Z,0.50
2023-06-15T05:05:11.789Z,0.50
2023-06-15T05:06:11.878Z,0.51
2023-06-15T05:07:11.900Z,0.51
2023-06-15T05:08:11.980Z,0.51
2023-06-15T05:09:12.085Z,0.50
2023-06-15T05:10:12.077Z,0.51
2023-06-15T05:11:12.078Z,0.52
2023-06-15T05:12:12.103Z,0.51
2023-06-15T05:13:13.097Z,0.52
2023-06-15T05:14:12.614Z,0.51
2023-06-15T05:15:12.218Z,0.52
2023-06-15T05:16:12.287Z,0.52
2023-06-15T05:17:12.299Z,0.51
2023-06-15T05:18:12.371Z,0.51
2023-06-15T05:19:12.400Z,0.50
2023-06-15T05:20:12.440Z,0.51
2023-06-15T05:21:12.458Z,0.51
2023-06-15T05:22:12.497Z,0.51
2023-06-15T05:23:12.517Z,0.52
2023-06-15T05:24:12.626Z,0.51
2023-06-15T05:25:12.587Z,0.52
2023-06-15T05:26:29.069Z,0.51
2023-06-15T05:27:13.623Z,0.51
2023-06-15T05:28:12.643Z,0.51
2023-06-15T05:29:12.696Z,0.52
2023-06-15T05:30:13.605Z,0.52
2023-06-15T05:31:12.650Z,0.52
2023-06-15T05:32:12.593Z,0.51
2023-06-15T05:33:12.592Z,0.51
2023-06-15T05:34:13.138Z,0.51
2023-06-15T05:35:12.606Z,0.50
2023-06-15T05:36:31.572Z,0.50
2023-06-15T05:37:13.575Z,0.50
2023-06-15T05:38:12.576Z,0.48
2023-06-15T05:39:12.581Z,0.42
2023-06-15T05:40:12.577Z,0.39
2023-06-15T05:41:12.587Z,0.37
2023-06-15T05:42:12.555Z,0.41
2023-06-15T05:43:12.556Z,0.44
2023-06-15T05:44:12.637Z,0.50
2023-06-15T05:45:14.834Z,0.50
2023-06-15T05:46:12.832Z,0.52
2023-06-15T05:47:13.746Z,0.50
2023-06-15T05:48:12.874Z,0.51
2023-06-15T05:49:12.947Z,0.51
2023-06-15T05:50:13.046Z,0.53
2023-06-15T05:51:13.083Z,0.55
2023-06-15T05:52:13.077Z,0.55
2023-06-15T05:53:13.149Z,0.56
2023-06-15T05:54:13.118Z,0.59
2023-06-15T05:55:13.151Z,0.62
2023-06-15T05:56:13.201Z,0.63
2023-06-15T05:57:13.236Z,0.69
2023-06-15T05:58:13.295Z,0.71
2023-06-15T05:59:27.184Z,0.75
2023-06-15T06:00:14.315Z,0.75
2023-06-15T06:01:13.299Z,0.76
2023-06-15T06:02:13.286Z,0.80
2023-06-15T06:03:13.314Z,0.85
2023-06-15T06:04:13.309Z,0.96
2023-06-15T06:05:13.276Z,0.99
2023-06-15T06:06:13.295Z,1.04
2023-06-15T06:07:13.310Z,1.07
2023-06-15T06:08:13.266Z,1.10
2023-06-15T06:09:13.271Z,1.12
2023-06-15T06:10:13.229Z,1.16
2023-06-15T06:11:13.325Z,1.18
2023-06-15T06:12:13.220Z,1.21
2023-06-15T06:13:13.232Z,1.25
2023-06-15T06:14:13.208Z,1.26
2023-06-15T06:15:13.195Z,1.30
2023-06-15T06:16:13.213Z,1.34
2023-06-15T06:17:17.535Z,1.37
2023-06-15T06:18:14.268Z,1.37
2023-06-15T06:19:13.168Z,1.38
2023-06-15T06:20:13.215Z,1.41
2023-06-15T06:21:13.170Z,1.45
2023-06-15T06:22:13.196Z,1.54
2023-06-15T06:23:13.155Z,1.62
2023-06-15T06:24:13.169Z,1.69
2023-06-15T06:25:13.160Z,1.70
2023-06-15T06:26:13.132Z,1.73
2023-06-15T06:27:13.127Z,1.75
2023-06-15T06:28:13.104Z,1.81
2023-06-15T06:29:13.118Z,1.86
2023-06-15T06:30:13.096Z,1.89
2023-06-15T06:31:13.087Z,1.84
2023-06-15T06:32:13.133Z,1.97
2023-06-15T06:33:13.260Z,2.01
2023-06-15T06:34:13.069Z,2.06
2023-06-15T06:35:13.075Z,2.00
2023-06-15T06:36:13.198Z,2.08
2023-06-15T06:37:13.252Z,2.02
2023-06-15T06:38:13.355Z,1.88
2023-06-15T06:39:13.376Z,1.11
2023-06-15T06:40:13.371Z,0.86
2023-06-15T06:41:13.410Z,0.70
2023-06-15T06:42:13.407Z,0.58
2023-06-15T06:43:13.372Z,0.56
2023-06-15T06:44:13.369Z,0.52
2023-06-15T06:45:13.362Z,0.56
2023-06-15T06:46:13.350Z,0.58
2023-06-15T06:47:13.358Z,0.62
2023-06-15T06:48:13.446Z,0.65
2023-06-15T06:49:13.449Z,0.71
2023-06-15T06:50:13.539Z,0.71
2023-06-15T06:51:13.629Z,0.69
2023-06-15T06:52:13.726Z,0.80
2023-06-15T06:53:13.842Z,0.83
2023-06-15T06:54:13.914Z,0.87
2023-06-15T06:55:14.038Z,0.89
2023-06-15T06:56:13.896Z,0.94
2023-06-15T06:57:13.968Z,1.02
2023-06-15T06:58:13.924Z,1.08
2023-06-15T06:59:14.310Z,1.12
2023-06-15T07:00:14.013Z,1.22
2023-06-15T07:01:14.025Z,1.29
2023-06-15T07:02:14.100Z,1.35
2023-06-15T07:03:14.104Z,1.37
2023-06-15T07:04:14.100Z,1.38
2023-06-15T07:05:14.148Z,1.47
2023-06-15T07:06:14.109Z,1.48
2023-06-15T07:07:14.121Z,1.48
2023-06-15T07:08:14.136Z,1.45
2023-06-15T07:09:14.267Z,1.53
2023-06-15T07:10:14.202Z,1.59
2023-06-15T07:11:14.191Z,1.60
2023-06-15T07:12:14.245Z,1.68
2023-06-15T07:13:14.333Z,1.68
2023-06-15T07:14:14.335Z,1.84
2023-06-15T07:15:14.428Z,1.78
2023-06-15T07:16:14.444Z,1.83
2023-06-15T07:17:14.470Z,1.85
2023-06-15T07:18:14.533Z,1.98
2023-06-15T07:19:14.586Z,1.96
2023-06-15T07:20:14.723Z,1.99
2023-06-15T07:21:14.708Z,2.06
2023-06-15T07:22:14.787Z,1.95
2023-06-15T07:23:14.842Z,2.05
2023-06-15T07:24:14.922Z,1.98
2023-06-15T07:25:15.137Z,2.19
2023-06-15T07:26:15.126Z,2.13
2023-06-15T07:27:15.115Z,2.18
2023-06-15T07:28:15.179Z,2.09
2023-06-15T07:29:15.685Z,1.93
2023-06-15T07:30:15.703Z,1.90
2023-06-15T07:31:15.356Z,2.04
2023-06-15T07:32:15.453Z,2.02
2023-06-15T07:33:15.484Z,2.03
2023-06-15T07:34:15.577Z,1.89
2023-06-15T07:35:15.606Z,1.49
2023-06-15T07:36:15.661Z,1.17
2023-06-15T07:37:15.778Z,0.98
2023-06-15T07:38:15.966Z,0.89
2023-06-15T07:39:15.872Z,0.85
2023-06-15T07:40:16.342Z,0.83
2023-06-15T07:41:15.991Z,0.71
2023-06-15T07:42:16.066Z,0.54
2023-06-15T07:43:16.105Z,0.47
2023-06-15T07:44:16.198Z,0.50
2023-06-15T07:45:16.225Z,0.49
2023-06-15T07:46:16.282Z,0.49
2023-06-15T07:47:16.322Z,0.53
2023-06-15T07:48:16.405Z,0.52
2023-06-15T07:49:16.411Z,0.54
2023-06-15T07:50:16.739Z,0.51
2023-06-15T07:51:32.107Z,0.48
2023-06-15T07:52:17.482Z,0.46
2023-06-15T07:53:16.470Z,0.40
2023-06-15T07:54:16.639Z,0.34
2023-06-15T07:55:16.466Z,0.34
2023-06-15T07:56:16.479Z,0.34
2023-06-15T07:57:16.455Z,0.39
2023-06-15T07:58:16.494Z,0.48
2023-06-15T07:59:16.651Z,0.51
2023-06-15T08:00:16.823Z,0.53
2023-06-15T08:01:16.416Z,0.61
2023-06-15T08:02:16.401Z,0.64
2023-06-15T08:03:16.505Z,0.78
2023-06-15T08:04:16.726Z,0.85
2023-06-15T08:05:16.391Z,0.97
2023-06-15T08:06:16.457Z,0.98
2023-06-15T08:07:16.476Z,1.18
2023-06-15T08:08:16.535Z,1.27
2023-06-15T08:09:16.580Z,1.30
2023-06-15T08:10:16.929Z,1.50
2023-06-15T08:11:16.668Z,1.58
2023-06-15T08:12:16.687Z,1.72
2023-06-15T08:13:16.745Z,1.82
2023-06-15T08:14:16.829Z,1.97
2023-06-15T08:15:16.885Z,1.94
2023-06-15T08:16:16.894Z,2.03
2023-06-15T08:17:16.934Z,2.12
2023-06-15T08:18:17.057Z,2.39
2023-06-15T08:19:17.017Z,2.48
2023-06-15T08:20:17.316Z,2.90
2023-06-15T08:21:17.095Z,3.10
2023-06-15T08:22:17.145Z,3.12
2023-06-15T08:23:17.212Z,3.24
2023-06-15T08:24:17.273Z,3.26
2023-06-15T08:25:17.301Z,3.87
2023-06-15T08:26:17.351Z,5.82
2023-06-15T08:27:17.439Z,6.54
2023-06-15T08:28:17.475Z,6.56
2023-06-15T08:29:23.412Z,5.89
2023-06-15T08:30:19.028Z,5.91
2023-06-15T08:31:17.445Z,5.99
2023-06-15T08:32:17.433Z,5.93
2023-06-15T08:33:17.477Z,5.69
2023-06-15T08:34:17.672Z,5.57
2023-06-15T08:35:17.493Z,5.64
2023-06-15T08:36:17.556Z,5.21
2023-06-15T08:37:17.567Z,5.34
2023-06-15T08:38:17.642Z,4.72
2023-06-15T08:39:18.674Z,4.70
2023-06-15T08:40:17.894Z,3.95
2023-06-15T08:41:17.598Z,3.03
2023-06-15T08:42:17.589Z,2.65
2023-06-15T08:43:17.608Z,2.76
2023-06-15T08:44:17.605Z,1.85
2023-06-15T08:45:17.657Z,1.02
2023-06-15T08:46:18.766Z,0.89
2023-06-15T08:47:17.702Z,0.58
2023-06-15T08:48:17.714Z,0.50
2023-06-15T08:49:17.722Z,0.49
2023-06-15T08:50:17.981Z,0.52
2023-06-15T08:51:17.880Z,0.55
2023-06-15T08:52:18.044Z,0.67
2023-06-15T08:53:18.122Z,0.66
2023-06-15T08:54:18.235Z,0.68
2023-06-15T08:55:18.243Z,0.58
2023-06-15T08:56:18.226Z,0.49
2023-06-15T08:57:18.207Z,0.53
2023-06-15T08:58:18.223Z,0.58
2023-06-15T08:59:18.688Z,0.61
2023-06-15T09:00:18.459Z,0.68
2023-06-15T09:01:18.336Z,0.74
2023-06-15T09:02:18.270Z,0.61
2023-06-15T09:03:18.338Z,0.60
2023-06-15T09:04:18.411Z,0.67
2023-06-15T09:05:18.380Z,0.78
2023-06-15T09:06:18.407Z,0.79
2023-06-15T09:07:18.469Z,0.80
2023-06-15T09:08:18.505Z,0.90
2023-06-15T09:09:18.540Z,0.92
2023-06-15T09:10:18.983Z,0.79
2023-06-15T09:11:18.629Z,0.61
2023-06-15T09:12:18.670Z,0.61
2023-06-15T09:13:18.717Z,0.61
2023-06-15T09:14:18.795Z,0.46
2023-06-15T09:15:18.783Z,0.50
2023-06-15T09:16:18.848Z,0.47
2023-06-15T09:17:18.872Z,0.49
2023-06-15T09:18:18.939Z,0.48
2023-06-15T09:19:18.983Z,0.49
2023-06-15T09:20:19.247Z,0.45
2023-06-15T09:21:19.041Z,0.54
2023-06-15T09:22:19.153Z,0.54
2023-06-15T09:23:19.110Z,0.50
2023-06-15T09:24:19.218Z,0.47
2023-06-15T09:25:19.188Z,0.46
2023-06-15T09:26:19.200Z,0.47
2023-06-15T09:27:19.212Z,0.50
2023-06-15T09:28:19.233Z,0.50
2023-06-15T09:29:19.738Z,0.52
2023-06-15T09:30:19.637Z,0.46
2023-06-15T09:31:19.261Z,0.50
2023-06-15T09:32:19.226Z,0.50
2023-06-15T09:33:19.244Z,0.56
2023-06-15T09:34:19.700Z,0.45
2023-06-15T09:35:19.262Z,0.52
2023-06-15T09:36:19.221Z,0.47
2023-06-15T09:37:19.240Z,0.46
2023-06-15T09:38:19.224Z,0.44
2023-06-15T09:39:19.250Z,0.50
2023-06-15T09:40:19.580Z,0.59
2023-06-15T09:41:19.474Z,0.59
2023-06-15T09:42:19.586Z,0.73
2023-06-15T09:43:19.652Z,0.95
2023-06-15T09:44:19.721Z,1.13
2023-06-15T09:45:20.268Z,1.52
2023-06-15T09:46:19.857Z,1.89
2023-06-15T09:47:19.864Z,2.28
2023-06-15T09:48:19.939Z,3.08
2023-06-15T09:49:19.901Z,3.34
2023-06-15T09:50:20.266Z,3.93
2023-06-15T09:51:20.035Z,4.33
2023-06-15T09:52:20.060Z,4.79
2023-06-15T09:53:20.125Z,5.38
2023-06-15T09:54:20.220Z,6.45
2023-06-15T09:55:20.259Z,7.16
2023-06-15T09:56:30.561Z,8.02
2023-06-15T09:57:21.236Z,8.06
2023-06-15T09:58:20.222Z,8.27
2023-06-15T09:59:20.244Z,8.70
2023-06-15T10:00:20.420Z,9.42
2023-06-15T10:01:20.232Z,10.82
2023-06-15T10:02:20.194Z,12.21
2023-06-15T10:03:20.393Z,13.24
2023-06-15T10:04:20.262Z,14.29
2023-06-15T10:05:20.203Z,16.66
2023-06-15T10:06:20.252Z,16.89
2023-06-15T10:07:20.276Z,17.27
2023-06-15T10:08:20.334Z,18.97
2023-06-15T10:09:20.353Z,20.71
2023-06-15T10:10:20.722Z,20.37
2023-06-15T10:11:20.424Z,19.89
2023-06-15T10:12:20.469Z,22.53
2023-06-15T10:13:20.454Z,23.42
2023-06-15T10:14:20.458Z,23.84
2023-06-15T10:15:20.517Z,23.93
2023-06-15T10:16:20.523Z,21.64
2023-06-15T10:17:20.585Z,22.02
2023-06-15T10:18:20.572Z,19.92
2023-06-15T10:19:20.596Z,21.11
2023-06-15T10:20:20.931Z,23.71
2023-06-15T10:21:20.637Z,23.20
2023-06-15T10:22:20.698Z,24.56
2023-06-15T10:23:29.375Z,24.48
2023-06-15T10:24:21.763Z,24.06
2023-06-15T10:25:20.689Z,21.81
2023-06-15T10:26:20.703Z,20.18
2023-06-15T10:27:21.282Z,22.40
2023-06-15T10:28:20.782Z,24.52
2023-06-15T10:29:20.684Z,12.94
2023-06-15T10:30:20.916Z,5.87
2023-06-15T10:31:20.672Z,4.72
2023-06-15T10:32:20.726Z,3.59
2023-06-15T10:33:21.229Z,3.52
2023-06-15T10:34:21.225Z,6.11
2023-06-15T10:35:20.916Z,5.40
2023-06-15T10:36:20.857Z,5.94
2023-06-15T10:37:21.748Z,8.28
2023-06-15T10:38:21.016Z,9.64
2023-06-15T10:39:21.267Z,10.41
2023-06-15T10:40:21.357Z,11.42
2023-06-15T10:41:21.050Z,11.78
2023-06-15T10:42:21.193Z,13.18
2023-06-15T10:43:21.169Z,15.06
2023-06-15T10:44:23.026Z,14.25
2023-06-15T10:45:21.382Z,15.25
2023-06-15T10:46:21.433Z,15.15
2023-06-15T10:47:21.584Z,13.67
2023-06-15T10:48:21.538Z,11.60
2023-06-15T10:49:21.570Z,11.12
2023-06-15T10:50:21.764Z,9.83
2023-06-15T10:51:21.693Z,10.17
2023-06-15T10:52:21.850Z,10.70
2023-06-15T10:53:21.742Z,11.78
2023-06-15T10:54:21.824Z,10.08
2023-06-15T10:55:21.799Z,11.74
2023-06-15T10:56:21.825Z,12.88
2023-06-15T10:57:21.846Z,14.30
2023-06-15T10:58:21.887Z,15.72
2023-06-15T10:59:21.878Z,13.51
2023-06-15T11:00:22.007Z,13.50
2023-06-15T11:01:22.306Z,14.85
2023-06-15T11:02:21.942Z,15.57
2023-06-15T11:03:21.948Z,16.59
2023-06-15T11:04:22.068Z,16.24
2023-06-15T11:05:22.021Z,16.38
2023-06-15T11:06:22.058Z,17.44
2023-06-15T11:07:22.092Z,15.66
2023-06-15T11:08:22.098Z,16.59
2023-06-15T11:09:22.152Z,14.23
2023-06-15T11:10:22.117Z,13.31
2023-06-15T11:11:22.125Z,13.29
2023-06-15T11:12:22.152Z,15.54
2023-06-15T11:13:22.097Z,15.68
2023-06-15T11:14:22.140Z,16.53
2023-06-15T11:15:22.085Z,15.04
2023-06-15T11:16:22.117Z,14.60
2023-06-15T11:17:22.122Z,14.07
2023-06-15T11:18:22.118Z,16.56
2023-06-15T11:19:22.138Z,18.44
2023-06-15T11:20:22.147Z,20.75
2023-06-15T11:21:22.116Z,23.12
2023-06-15T11:22:22.119Z,24.85
2023-06-15T11:23:22.203Z,28.72
2023-06-15T11:24:22.285Z,26.34
2023-06-15T11:25:22.319Z,24.42
2023-06-15T11:26:22.257Z,24.62
2023-06-15T11:27:22.234Z,25.14
2023-06-15T11:28:35.010Z,26.29
2023-06-15T11:29:23.329Z,26.32
2023-06-15T11:30:22.268Z,26.51
2023-06-15T11:31:22.309Z,26.67
2023-06-15T11:32:22.689Z,26.51
2023-06-15T11:33:22.267Z,27.18
2023-06-15T11:34:22.252Z,26.18
2023-06-15T11:35:22.240Z,27.19
2023-06-15T11:36:22.282Z,26.93
2023-06-15T11:37:22.281Z,27.24
2023-06-15T11:38:22.242Z,25.82
2023-06-15T11:39:22.185Z,28.49
2023-06-15T11:40:22.197Z,27.09
2023-06-15T11:41:22.164Z,27.37
2023-06-15T11:42:22.237Z,26.86
2023-06-15T11:43:22.154Z,26.91
2023-06-15T11:44:22.217Z,24.76
2023-06-15T11:45:22.153Z,24.22
2023-06-15T11:46:22.241Z,27.16
2023-06-15T11:47:22.217Z,24.29
2023-06-15T11:48:22.127Z,25.08
2023-06-15T11:49:22.121Z,26.08
2023-06-15T11:50:22.118Z,26.41
2023-06-15T11:51:22.116Z,27.78
2023-06-15T11:52:22.089Z,30.16
2023-06-15T11:53:22.104Z,29.32
2023-06-15T11:54:23.491Z,29.68
2023-06-15T11:55:22.206Z,28.58
2023-06-15T11:56:22.190Z,29.04
2023-06-15T11:57:22.400Z,28.61
2023-06-15T11:58:22.160Z,27.77
2023-06-15T11:59:22.184Z,28.16
2023-06-15T12:00:22.146Z,30.30
2023-06-15T12:01:22.152Z,31.37
2023-06-15T12:02:22.441Z,32.71
2023-06-15T12:03:22.234Z,30.57
2023-06-15T12:04:22.166Z,31.67
2023-06-15T12:05:22.140Z,33.52
2023-06-15T12:06:22.179Z,33.48
2023-06-15T12:07:32.438Z,31.07
2023-06-15T12:08:23.105Z,31.17
2023-06-15T12:09:22.108Z,31.54
2023-06-15T12:10:22.111Z,32.66
2023-06-15T12:11:22.082Z,34.57
2023-06-15T12:12:22.084Z,37.20
2023-06-15T12:13:22.081Z,36.27
2023-06-15T12:14:22.317Z,36.10
2023-06-15T12:15:22.077Z,36.13
2023-06-15T12:16:22.079Z,35.04
2023-06-15T12:17:22.059Z,35.78
2023-06-15T12:18:22.022Z,36.66
2023-06-15T12:19:22.056Z,36.87
2023-06-15T12:20:22.023Z,38.70
2023-06-15T12:21:23.428Z,35.45
2023-06-15T12:22:29.200Z,35.51
2023-06-15T12:23:23.022Z,35.58
2023-06-15T12:24:22.011Z,35.01
2023-06-15T12:25:21.971Z,29.70
2023-06-15T12:26:21.966Z,25.59
2023-06-15T12:27:21.969Z,22.45
2023-06-15T12:28:21.962Z,16.48
2023-06-15T12:29:21.977Z,16.55
2023-06-15T12:30:22.426Z,18.10
2023-06-15T12:31:21.940Z,15.99
2023-06-15T12:32:21.920Z,14.49
2023-06-15T12:33:21.960Z,12.35
2023-06-15T12:34:21.930Z,12.31
2023-06-15T12:35:21.912Z,10.91
2023-06-15T12:36:21.915Z,8.88
2023-06-15T12:37:21.893Z,5.42
2023-06-15T12:38:21.892Z,4.36
2023-06-15T12:39:21.873Z,3.89
2023-06-15T12:40:21.876Z,3.25
2023-06-15T12:41:21.864Z,3.39
2023-06-15T12:42:21.880Z,3.25
2023-06-15T12:43:21.864Z,3.49
2023-06-15T12:44:21.856Z,3.60
2023-06-15T12:45:21.833Z,3.53
2023-06-15T12:46:21.898Z,3.78
2023-06-15T12:47:21.822Z,4.05
2023-06-15T12:48:21.832Z,4.09
2023-06-15T12:49:21.839Z,4.24
2023-06-15T12:50:21.959Z,4.56
2023-06-15T12:51:21.794Z,4.87
2023-06-15T12:52:21.814Z,4.99
2023-06-15T12:53:21.783Z,5.50
2023-06-15T12:54:23.319Z,5.90
2023-06-15T12:55:21.772Z,6.36
2023-06-15T12:56:21.787Z,6.46
2023-06-15T12:57:21.815Z,7.25
2023-06-15T12:58:21.758Z,7.40
2023-06-15T12:59:21.738Z,7.66
2023-06-15T13:00:21.756Z,7.85
2023-06-15T13:01:21.926Z,7.72
2023-06-15T13:02:21.972Z,7.85
2023-06-15T13:03:22.144Z,8.04
2023-06-15T13:04:22.142Z,8.27
2023-06-15T13:05:22.112Z,9.35
2023-06-15T13:06:22.053Z,9.16
2023-06-15T13:07:22.123Z,9.73
2023-06-15T13:08:22.222Z,9.72
2023-06-15T13:09:22.291Z,10.15
2023-06-15T13:10:22.395Z,10.34
2023-06-15T13:11:22.492Z,10.69
2023-06-15T13:12:22.600Z,11.88
2023-06-15T13:13:22.682Z,10.98
2023-06-15T13:14:22.684Z,11.72